OTBD/DOH METAR and TAF weather

Enter ICAO airport designator
Station Type Date Time Source
OTBD METAR 2019/04/25 01:30 UTC NOAA

OTBD 250130Z AUTO 31008KT 280V340 CAVOK 21/11 Q1016 NOSIG


Station Type Date Time Source
OTBD Decoded METAR 2019/04/25 01:30 UTC NOAA

Doha International Airport, Qatar (OTBD) 25-15N 051-34E 10M
Apr 24, 2019 - 09:30 PM EDT / 2019.04.25 0130 UTC
Wind: from the NW (310 degrees) at 9 MPH (8 KT) (direction variable):0
Visibility: greater than 7 mile(s):0
Temperature: 69 F (21 C)
Dew Point: 51 F (11 C)
Relative Humidity: 52%
Pressure (altimeter): 30.00 in. Hg (1016 hPa)
ob: OTBD 250130Z AUTO 31008KT 280V340 CAVOK 21/11 Q1016 NOSIG
cycle: 1

Station Type Date Time Source
OTBD TAF 2019/04/24 18:06 UTC NOAA

TAF OTBD 241702Z 2418/2524 34012KT CAVOK PROB30
TEMPO 1418/1420 35012G22KT
BECMG 2508/2510 35018G28KT PROB30
TEMPO 2509/2514 4000 BLDU

Example: see airport list